sensor_id;sensor_type;location;lat;lon;timestamp;temperature;humidity
8832;DHT22;4452;50.756;4.472;2022-09-16T00:00:21;13.50;99.90
8832;DHT22;4452;50.756;4.472;2022-09-16T00:02:50;13.50;99.90
8832;DHT22;4452;50.756;4.472;2022-09-16T00:05:16;13.50;99.90
8832;DHT22;4452;50.756;4.472;2022-09-16T00:07:42;13.50;99.90
8832;DHT22;4452;50.756;4.472;2022-09-16T00:10:08;13.50;99.90
8832;DHT22;4452;50.756;4.472;2022-09-16T00:12:34;13.50;99.90
8832;DHT22;4452;50.756;4.472;2022-09-16T00:15:01;13.50;99.90
8832;DHT22;4452;50.756;4.472;2022-09-16T00:17:26;13.40;99.90
8832;DHT22;4452;50.756;4.472;2022-09-16T00:19:54;13.40;99.90
8832;DHT22;4452;50.756;4.472;2022-09-16T00:22:20;13.30;99.90
8832;DHT22;4452;50.756;4.472;2022-09-16T00:24:47;13.30;99.90
8832;DHT22;4452;50.756;4.472;2022-09-16T00:27:13;13.30;99.90
8832;DHT22;4452;50.756;4.472;2022-09-16T00:29:38;13.30;99.90
8832;DHT22;4452;50.756;4.472;2022-09-16T00:32:04;13.20;99.90
8832;DHT22;4452;50.756;4.472;2022-09-16T00:34:29;13.20;99.90
8832;DHT22;4452;50.756;4.472;2022-09-16T00:36:55;13.20;99.90
8832;DHT22;4452;50.756;4.472;2022-09-16T00:39:21;13.20;99.90
8832;DHT22;4452;50.756;4.472;2022-09-16T00:41:46;13.10;99.90
8832;DHT22;4452;50.756;4.472;2022-09-16T00:47:51;13.00;99.90
8832;DHT22;4452;50.756;4.472;2022-09-16T00:50:19;13.00;99.90
8832;DHT22;4452;50.756;4.472;2022-09-16T00:52:46;13.00;99.90
8832;DHT22;4452;50.756;4.472;2022-09-16T00:55:18;13.00;99.90
8832;DHT22;4452;50.756;4.472;2022-09-16T00:57:44;12.90;99.90
8832;DHT22;4452;50.756;4.472;2022-09-16T01:00:11;12.90;99.90
8832;DHT22;4452;50.756;4.472;2022-09-16T01:02:39;12.90;99.90
8832;DHT22;4452;50.756;4.472;2022-09-16T01:05:10;12.90;99.90
8832;DHT22;4452;50.756;4.472;2022-09-16T01:07:46;12.80;99.90
8832;DHT22;4452;50.756;4.472;2022-09-16T01:10:14;12.90;99.90
8832;DHT22;4452;50.756;4.472;2022-09-16T01:12:42;12.90;99.90
8832;DHT22;4452;50.756;4.472;2022-09-16T01:15:10;12.90;99.90
8832;DHT22;4452;50.756;4.472;2022-09-16T01:18:13;12.90;99.90
8832;DHT22;4452;50.756;4.472;2022-09-16T01:29:17;12.80;99.90
8832;DHT22;4452;50.756;4.472;2022-09-16T01:32:07;12.80;99.90
8832;DHT22;4452;50.756;4.472;2022-09-16T01:34:48;12.70;99.90
8832;DHT22;4452;50.756;4.472;2022-09-16T01:40:02;12.70;99.90
8832;DHT22;4452;50.756;4.472;2022-09-16T01:42:39;12.70;99.90
8832;DHT22;4452;50.756;4.472;2022-09-16T01:45:23;12.60;99.90
8832;DHT22;4452;50.756;4.472;2022-09-16T01:48:10;12.60;99.90
8832;DHT22;4452;50.756;4.472;2022-09-16T01:56:02;12.50;99.90
8832;DHT22;4452;50.756;4.472;2022-09-16T01:58:45;12.50;99.90
8832;DHT22;4452;50.756;4.472;2022-09-16T02:01:21;12.50;99.90
8832;DHT22;4452;50.756;4.472;2022-09-16T02:03:54;12.50;99.90
8832;DHT22;4452;50.756;4.472;2022-09-16T02:06:24;12.50;99.90
8832;DHT22;4452;50.756;4.472;2022-09-16T02:08:57;12.40;99.90
8832;DHT22;4452;50.756;4.472;2022-09-16T02:11:23;12.50;99.90
8832;DHT22;4452;50.756;4.472;2022-09-16T02:14:00;12.50;99.90
8832;DHT22;4452;50.756;4.472;2022-09-16T02:16:35;12.40;99.90
8832;DHT22;4452;50.756;4.472;2022-09-16T02:19:11;12.40;99.90
8832;DHT22;4452;50.756;4.472;2022-09-16T02:21:41;12.50;99.90
8832;DHT22;4452;50.756;4.472;2022-09-16T02:24:15;12.40;99.90
8832;DHT22;4452;50.756;4.472;2022-09-16T02:26:45;12.40;99.90
8832;DHT22;4452;50.756;4.472;2022-09-16T02:29:15;12.50;99.90
8832;DHT22;4452;50.756;4.472;2022-09-16T02:31:43;12.50;99.90
8832;DHT22;4452;50.756;4.472;2022-09-16T02:34:14;12.50;99.90
8832;DHT22;4452;50.756;4.472;2022-09-16T02:36:44;12.60;99.90
8832;DHT22;4452;50.756;4.472;2022-09-16T02:39:13;12.50;99.90
8832;DHT22;4452;50.756;4.472;2022-09-16T02:41:41;12.50;99.90
8832;DHT22;4452;50.756;4.472;2022-09-16T02:44:08;12.40;99.90
8832;DHT22;4452;50.756;4.472;2022-09-16T02:55:14;12.30;99.90
8832;DHT22;4452;50.756;4.472;2022-09-16T02:57:43;12.30;99.90
8832;DHT22;4452;50.756;4.472;2022-09-16T03:00:08;12.30;99.90
8832;DHT22;4452;50.756;4.472;2022-09-16T03:02:35;12.30;99.90
8832;DHT22;4452;50.756;4.472;2022-09-16T03:05:01;12.40;99.90
8832;DHT22;4452;50.756;4.472;2022-09-16T03:07:28;12.40;99.90
8832;DHT22;4452;50.756;4.472;2022-09-16T03:09:54;12.40;99.90
8832;DHT22;4452;50.756;4.472;2022-09-16T03:12:55;12.40;99.90
8832;DHT22;4452;50.756;4.472;2022-09-16T03:15:47;12.40;99.90
8832;DHT22;4452;50.756;4.472;2022-09-16T03:24:00;12.30;99.90
8832;DHT22;4452;50.756;4.472;2022-09-16T03:26:58;12.30;99.90
8832;DHT22;4452;50.756;4.472;2022-09-16T03:29:54;12.30;99.90
8832;DHT22;4452;50.756;4.472;2022-09-16T03:32:23;12.40;99.90
8832;DHT22;4452;50.756;4.472;2022-09-16T03:34:54;12.40;99.90
8832;DHT22;4452;50.756;4.472;2022-09-16T03:37:26;12.40;99.90
8832;DHT22;4452;50.756;4.472;2022-09-16T03:39:57;12.40;99.90
8832;DHT22;4452;50.756;4.472;2022-09-16T03:42:24;12.30;99.90
8832;DHT22;4452;50.756;4.472;2022-09-16T03:44:50;12.20;99.90
8832;DHT22;4452;50.756;4.472;2022-09-16T03:47:16;12.20;99.90
8832;DHT22;4452;50.756;4.472;2022-09-16T03:49:42;12.10;99.90
8832;DHT22;4452;50.756;4.472;2022-09-16T03:52:08;12.10;99.90
8832;DHT22;4452;50.756;4.472;2022-09-16T03:54:35;12.10;99.90
8832;DHT22;4452;50.756;4.472;2022-09-16T03:57:01;12.10;99.90
8832;DHT22;4452;50.756;4.472;2022-09-16T03:59:27;12.00;99.90
8832;DHT22;4452;50.756;4.472;2022-09-16T04:01:53;12.00;99.90
8832;DHT22;4452;50.756;4.472;2022-09-16T04:04:19;12.00;99.90
8832;DHT22;4452;50.756;4.472;2022-09-16T04:06:44;12.00;99.90
8832;DHT22;4452;50.756;4.472;2022-09-16T04:09:10;11.90;99.90
8832;DHT22;4452;50.756;4.472;2022-09-16T04:11:40;11.90;99.90
8832;DHT22;4452;50.756;4.472;2022-09-16T04:14:06;11.90;99.90
8832;DHT22;4452;50.756;4.472;2022-09-16T04:16:32;11.90;99.90
8832;DHT22;4452;50.756;4.472;2022-09-16T04:18:58;11.90;99.90
8832;DHT22;4452;50.756;4.472;2022-09-16T04:21:24;11.80;99.90
8832;DHT22;4452;50.756;4.472;2022-09-16T04:23:50;11.80;99.90
8832;DHT22;4452;50.756;4.472;2022-09-16T04:26:16;11.80;99.90
8832;DHT22;4452;50.756;4.472;2022-09-16T04:28:42;11.80;99.90
8832;DHT22;4452;50.756;4.472;2022-09-16T04:31:10;11.80;99.90
8832;DHT22;4452;50.756;4.472;2022-09-16T04:33:37;11.80;99.90
8832;DHT22;4452;50.756;4.472;2022-09-16T04:36:07;11.80;99.90
8832;DHT22;4452;50.756;4.472;2022-09-16T04:38:34;11.80;99.90
8832;DHT22;4452;50.756;4.472;2022-09-16T04:41:02;11.80;99.90
8832;DHT22;4452;50.756;4.472;2022-09-16T04:43:28;11.80;99.90
8832;DHT22;4452;50.756;4.472;2022-09-16T04:45:54;11.80;99.90
8832;DHT22;4452;50.756;4.472;2022-09-16T04:48:19;11.80;99.90
8832;DHT22;4452;50.756;4.472;2022-09-16T04:50:45;11.80;99.90
8832;DHT22;4452;50.756;4.472;2022-09-16T04:53:10;11.80;99.90
8832;DHT22;4452;50.756;4.472;2022-09-16T04:55:36;11.80;99.90
8832;DHT22;4452;50.756;4.472;2022-09-16T04:58:02;11.80;99.90
8832;DHT22;4452;50.756;4.472;2022-09-16T05:00:27;11.80;99.90
8832;DHT22;4452;50.756;4.472;2022-09-16T05:02:53;11.80;99.90
8832;DHT22;4452;50.756;4.472;2022-09-16T05:05:19;11.80;99.90
8832;DHT22;4452;50.756;4.472;2022-09-16T05:07:45;11.80;99.90
8832;DHT22;4452;50.756;4.472;2022-09-16T05:10:11;11.80;99.90
8832;DHT22;4452;50.756;4.472;2022-09-16T05:12:37;11.80;99.90
8832;DHT22;4452;50.756;4.472;2022-09-16T05:15:03;11.80;99.90
8832;DHT22;4452;50.756;4.472;2022-09-16T05:17:30;11.80;99.90
8832;DHT22;4452;50.756;4.472;2022-09-16T05:19:56;11.80;99.90
8832;DHT22;4452;50.756;4.472;2022-09-16T05:22:22;11.80;99.90
8832;DHT22;4452;50.756;4.472;2022-09-16T05:24:47;11.80;99.90
8832;DHT22;4452;50.756;4.472;2022-09-16T05:27:13;11.80;99.90
8832;DHT22;4452;50.756;4.472;2022-09-16T05:29:39;11.80;99.90
8832;DHT22;4452;50.756;4.472;2022-09-16T05:32:05;11.80;99.90
8832;DHT22;4452;50.756;4.472;2022-09-16T05:34:32;11.80;99.90
8832;DHT22;4452;50.756;4.472;2022-09-16T05:37:00;11.70;99.90
8832;DHT22;4452;50.756;4.472;2022-09-16T05:39:26;11.70;99.90
8832;DHT22;4452;50.756;4.472;2022-09-16T05:41:57;11.70;99.90
8832;DHT22;4452;50.756;4.472;2022-09-16T05:44:24;11.70;99.90
8832;DHT22;4452;50.756;4.472;2022-09-16T05:46:50;11.70;99.90
8832;DHT22;4452;50.756;4.472;2022-09-16T05:49:16;11.70;99.90
8832;DHT22;4452;50.756;4.472;2022-09-16T05:51:45;11.70;99.90
8832;DHT22;4452;50.756;4.472;2022-09-16T05:54:11;11.70;99.90
8832;DHT22;4452;50.756;4.472;2022-09-16T05:56:37;11.70;99.90
8832;DHT22;4452;50.756;4.472;2022-09-16T05:59:03;11.70;99.90
8832;DHT22;4452;50.756;4.472;2022-09-16T06:01:31;11.70;99.90
8832;DHT22;4452;50.756;4.472;2022-09-16T06:04:00;11.70;99.90
8832;DHT22;4452;50.756;4.472;2022-09-16T06:06:35;11.70;99.90
8832;DHT22;4452;50.756;4.472;2022-09-16T06:09:12;11.80;99.90
8832;DHT22;4452;50.756;4.472;2022-09-16T06:11:43;11.80;99.90
8832;DHT22;4452;50.756;4.472;2022-09-16T06:14:10;11.90;99.90
8832;DHT22;4452;50.756;4.472;2022-09-16T06:16:37;11.90;99.90
8832;DHT22;4452;50.756;4.472;2022-09-16T06:19:05;11.90;99.90
8832;DHT22;4452;50.756;4.472;2022-09-16T06:21:31;12.00;99.90
8832;DHT22;4452;50.756;4.472;2022-09-16T06:23:57;12.00;99.90
8832;DHT22;4452;50.756;4.472;2022-09-16T06:26:25;12.10;99.90
8832;DHT22;4452;50.756;4.472;2022-09-16T06:28:51;12.00;99.90
8832;DHT22;4452;50.756;4.472;2022-09-16T06:31:22;11.90;99.90
8832;DHT22;4452;50.756;4.472;2022-09-16T06:33:48;12.00;99.90
8832;DHT22;4452;50.756;4.472;2022-09-16T06:36:22;11.90;99.90
8832;DHT22;4452;50.756;4.472;2022-09-16T06:38:49;11.90;99.90
8832;DHT22;4452;50.756;4.472;2022-09-16T06:41:17;11.90;99.90
8832;DHT22;4452;50.756;4.472;2022-09-16T06:43:43;11.80;99.90
8832;DHT22;4452;50.756;4.472;2022-09-16T06:46:14;11.80;99.90
8832;DHT22;4452;50.756;4.472;2022-09-16T06:48:47;11.80;99.90
8832;DHT22;4452;50.756;4.472;2022-09-16T06:51:25;11.90;99.90
8832;DHT22;4452;50.756;4.472;2022-09-16T06:53:52;11.90;99.90
8832;DHT22;4452;50.756;4.472;2022-09-16T06:56:19;12.00;99.90
8832;DHT22;4452;50.756;4.472;2022-09-16T06:58:47;12.00;99.90
8832;DHT22;4452;50.756;4.472;2022-09-16T07:01:16;12.00;99.90
8832;DHT22;4452;50.756;4.472;2022-09-16T07:03:44;12.10;99.90
8832;DHT22;4452;50.756;4.472;2022-09-16T07:06:12;12.20;99.90
8832;DHT22;4452;50.756;4.472;2022-09-16T07:08:39;12.20;99.90
8832;DHT22;4452;50.756;4.472;2022-09-16T07:13:33;12.20;99.90
8832;DHT22;4452;50.756;4.472;2022-09-16T07:16:10;12.10;99.90
8832;DHT22;4452;50.756;4.472;2022-09-16T07:18:37;12.00;99.90
8832;DHT22;4452;50.756;4.472;2022-09-16T07:21:05;11.80;99.90
8832;DHT22;4452;50.756;4.472;2022-09-16T07:23:33;11.70;99.90
8832;DHT22;4452;50.756;4.472;2022-09-16T07:26:13;11.80;99.90
8832;DHT22;4452;50.756;4.472;2022-09-16T07:28:41;11.80;99.90
8832;DHT22;4452;50.756;4.472;2022-09-16T07:31:10;11.80;99.90
8832;DHT22;4452;50.756;4.472;2022-09-16T07:33:38;11.90;99.90
8832;DHT22;4452;50.756;4.472;2022-09-16T07:36:05;12.00;99.90
8832;DHT22;4452;50.756;4.472;2022-09-16T07:38:31;12.00;99.90
8832;DHT22;4452;50.756;4.472;2022-09-16T07:41:08;12.10;99.90
8832;DHT22;4452;50.756;4.472;2022-09-16T07:43:34;11.90;99.90
8832;DHT22;4452;50.756;4.472;2022-09-16T07:46:00;11.90;99.90
8832;DHT22;4452;50.756;4.472;2022-09-16T07:48:28;11.90;99.90
8832;DHT22;4452;50.756;4.472;2022-09-16T07:51:02;12.00;99.90
8832;DHT22;4452;50.756;4.472;2022-09-16T07:53:29;12.00;99.90
8832;DHT22;4452;50.756;4.472;2022-09-16T07:55:59;12.00;99.90
8832;DHT22;4452;50.756;4.472;2022-09-16T07:58:25;12.00;99.90
8832;DHT22;4452;50.756;4.472;2022-09-16T08:00:51;12.10;99.90
8832;DHT22;4452;50.756;4.472;2022-09-16T08:03:16;12.20;99.90
8832;DHT22;4452;50.756;4.472;2022-09-16T08:05:42;12.10;99.90
8832;DHT22;4452;50.756;4.472;2022-09-16T08:08:08;12.10;99.90
8832;DHT22;4452;50.756;4.472;2022-09-16T08:10:34;12.20;99.90
8832;DHT22;4452;50.756;4.472;2022-09-16T08:13:06;12.30;99.90
8832;DHT22;4452;50.756;4.472;2022-09-16T08:15:34;12.30;99.90
8832;DHT22;4452;50.756;4.472;2022-09-16T08:18:03;12.50;99.90
8832;DHT22;4452;50.756;4.472;2022-09-16T08:20:36;12.70;99.90
8832;DHT22;4452;50.756;4.472;2022-09-16T08:23:04;12.60;99.90
8832;DHT22;4452;50.756;4.472;2022-09-16T08:25:32;12.70;99.90
8832;DHT22;4452;50.756;4.472;2022-09-16T08:27:57;12.80;99.90
8832;DHT22;4452;50.756;4.472;2022-09-16T08:30:23;12.80;99.90
8832;DHT22;4452;50.756;4.472;2022-09-16T08:32:58;13.00;99.90
8832;DHT22;4452;50.756;4.472;2022-09-16T08:35:24;13.10;99.90
8832;DHT22;4452;50.756;4.472;2022-09-16T08:37:51;13.10;99.90
8832;DHT22;4452;50.756;4.472;2022-09-16T08:40:20;13.30;99.90
8832;DHT22;4452;50.756;4.472;2022-09-16T08:42:52;13.20;99.90
8832;DHT22;4452;50.756;4.472;2022-09-16T08:45:39;13.30;99.90
8832;DHT22;4452;50.756;4.472;2022-09-16T08:50:47;13.50;99.90
8832;DHT22;4452;50.756;4.472;2022-09-16T08:56:09;13.40;99.90
8832;DHT22;4452;50.756;4.472;2022-09-16T08:58:46;13.20;99.90
8832;DHT22;4452;50.756;4.472;2022-09-16T09:04:17;12.90;99.90
8832;DHT22;4452;50.756;4.472;2022-09-16T09:12:20;12.40;99.90
8832;DHT22;4452;50.756;4.472;2022-09-16T09:26:14;12.40;99.90
8832;DHT22;4452;50.756;4.472;2022-09-16T09:39:53;12.50;99.90
8832;DHT22;4452;50.756;4.472;2022-09-16T09:42:28;12.70;99.90
8832;DHT22;4452;50.756;4.472;2022-09-16T09:47:56;13.10;99.90
8832;DHT22;4452;50.756;4.472;2022-09-16T09:55:33;13.00;99.90
8832;DHT22;4452;50.756;4.472;2022-09-16T09:58:14;13.10;99.90
8832;DHT22;4452;50.756;4.472;2022-09-16T10:00:41;12.90;99.90
8832;DHT22;4452;50.756;4.472;2022-09-16T10:03:13;12.60;99.90
8832;DHT22;4452;50.756;4.472;2022-09-16T10:05:39;12.80;99.90
8832;DHT22;4452;50.756;4.472;2022-09-16T10:08:20;13.00;99.90
8832;DHT22;4452;50.756;4.472;2022-09-16T10:10:52;13.20;99.90
8832;DHT22;4452;50.756;4.472;2022-09-16T10:13:19;13.70;99.90
8832;DHT22;4452;50.756;4.472;2022-09-16T10:15:46;14.00;99.90
8832;DHT22;4452;50.756;4.472;2022-09-16T10:18:24;14.30;99.90
8832;DHT22;4452;50.756;4.472;2022-09-16T10:23:28;14.50;99.90
8832;DHT22;4452;50.756;4.472;2022-09-16T10:28:41;14.70;99.90
8832;DHT22;4452;50.756;4.472;2022-09-16T10:31:17;14.60;99.90
8832;DHT22;4452;50.756;4.472;2022-09-16T10:33:43;14.50;99.90
8832;DHT22;4452;50.756;4.472;2022-09-16T10:36:20;14.80;99.90
8832;DHT22;4452;50.756;4.472;2022-09-16T10:38:53;15.00;99.90
8832;DHT22;4452;50.756;4.472;2022-09-16T10:41:23;14.90;99.90
8832;DHT22;4452;50.756;4.472;2022-09-16T10:43:58;15.70;99.90
8832;DHT22;4452;50.756;4.472;2022-09-16T10:46:26;15.30;99.90
8832;DHT22;4452;50.756;4.472;2022-09-16T10:48:59;15.10;99.90
8832;DHT22;4452;50.756;4.472;2022-09-16T10:51:28;14.90;99.90
8832;DHT22;4452;50.756;4.472;2022-09-16T10:54:00;13.90;99.90
8832;DHT22;4452;50.756;4.472;2022-09-16T10:56:45;13.00;99.90
8832;DHT22;4452;50.756;4.472;2022-09-16T10:59:16;12.70;99.90
8832;DHT22;4452;50.756;4.472;2022-09-16T11:07:30;12.70;99.90
8832;DHT22;4452;50.756;4.472;2022-09-16T11:19:04;13.50;99.90
8832;DHT22;4452;50.756;4.472;2022-09-16T11:24:55;14.20;99.90
8832;DHT22;4452;50.756;4.472;2022-09-16T11:30:11;14.40;99.90
8832;DHT22;4452;50.756;4.472;2022-09-16T11:38:01;14.90;99.90
8832;DHT22;4452;50.756;4.472;2022-09-16T11:40:46;15.20;99.90
8832;DHT22;4452;50.756;4.472;2022-09-16T11:43:43;14.90;99.90
8832;DHT22;4452;50.756;4.472;2022-09-16T11:46:26;14.50;99.90
8832;DHT22;4452;50.756;4.472;2022-09-16T11:54:07;13.50;99.90
8832;DHT22;4452;50.756;4.472;2022-09-16T11:56:57;13.50;99.90
8832;DHT22;4452;50.756;4.472;2022-09-16T12:04:43;13.30;99.90
8832;DHT22;4452;50.756;4.472;2022-09-16T12:09:53;13.30;99.90
8832;DHT22;4452;50.756;4.472;2022-09-16T12:12:32;12.90;99.90
8832;DHT22;4452;50.756;4.472;2022-09-16T12:15:24;12.60;99.90
8832;DHT22;4452;50.756;4.472;2022-09-16T12:18:00;12.20;99.90
8832;DHT22;4452;50.756;4.472;2022-09-16T12:20:35;12.10;99.90
8832;DHT22;4452;50.756;4.472;2022-09-16T12:23:19;12.10;99.90
8832;DHT22;4452;50.756;4.472;2022-09-16T12:31:10;12.60;99.90
8832;DHT22;4452;50.756;4.472;2022-09-16T12:33:47;12.50;99.90
8832;DHT22;4452;50.756;4.472;2022-09-16T12:36:17;12.60;99.90
8832;DHT22;4452;50.756;4.472;2022-09-16T12:38:44;12.70;99.90
8832;DHT22;4452;50.756;4.472;2022-09-16T12:41:33;12.50;99.90
8832;DHT22;4452;50.756;4.472;2022-09-16T13:03:53;13.90;99.90
8832;DHT22;4452;50.756;4.472;2022-09-16T13:06:24;14.00;99.90
8832;DHT22;4452;50.756;4.472;2022-09-16T13:08:51;14.40;99.90
8832;DHT22;4452;50.756;4.472;2022-09-16T13:11:23;14.40;99.90
8832;DHT22;4452;50.756;4.472;2022-09-16T13:13:53;14.90;99.90
8832;DHT22;4452;50.756;4.472;2022-09-16T13:16:31;15.10;99.90
8832;DHT22;4452;50.756;4.472;2022-09-16T13:21:39;15.20;99.90
8832;DHT22;4452;50.756;4.472;2022-09-16T13:24:30;15.20;99.90
8832;DHT22;4452;50.756;4.472;2022-09-16T13:26:57;15.00;99.90
8832;DHT22;4452;50.756;4.472;2022-09-16T13:31:58;15.20;99.90
8832;DHT22;4452;50.756;4.472;2022-09-16T13:34:24;14.90;99.90
8832;DHT22;4452;50.756;4.472;2022-09-16T13:36:51;14.80;99.90
8832;DHT22;4452;50.756;4.472;2022-09-16T13:39:31;14.50;99.90
8832;DHT22;4452;50.756;4.472;2022-09-16T13:42:09;15.00;99.90
8832;DHT22;4452;50.756;4.472;2022-09-16T13:44:41;15.10;99.90
8832;DHT22;4452;50.756;4.472;2022-09-16T13:49:47;14.70;99.90
8832;DHT22;4452;50.756;4.472;2022-09-16T13:52:34;14.60;99.90
8832;DHT22;4452;50.756;4.472;2022-09-16T13:55:05;14.40;99.90
8832;DHT22;4452;50.756;4.472;2022-09-16T14:11:17;11.70;99.90
8832;DHT22;4452;50.756;4.472;2022-09-16T14:13:55;12.00;99.90
8832;DHT22;4452;50.756;4.472;2022-09-16T14:16:23;12.30;99.90
8832;DHT22;4452;50.756;4.472;2022-09-16T14:18:55;12.70;99.90
8832;DHT22;4452;50.756;4.472;2022-09-16T14:21:23;13.30;99.90
8832;DHT22;4452;50.756;4.472;2022-09-16T14:23:49;14.40;99.90
8832;DHT22;4452;50.756;4.472;2022-09-16T14:26:20;15.50;99.90
8832;DHT22;4452;50.756;4.472;2022-09-16T14:28:46;16.30;99.90
8832;DHT22;4452;50.756;4.472;2022-09-16T14:31:20;16.80;99.90
8832;DHT22;4452;50.756;4.472;2022-09-16T14:38:57;16.40;99.90
8832;DHT22;4452;50.756;4.472;2022-09-16T14:49:25;15.50;99.90
8832;DHT22;4452;50.756;4.472;2022-09-16T14:51:58;15.20;99.90
8832;DHT22;4452;50.756;4.472;2022-09-16T14:54:25;14.10;99.90
8832;DHT22;4452;50.756;4.472;2022-09-16T14:57:01;13.80;99.90
8832;DHT22;4452;50.756;4.472;2022-09-16T14:59:30;14.30;99.90
8832;DHT22;4452;50.756;4.472;2022-09-16T15:01:59;14.20;99.90
8832;DHT22;4452;50.756;4.472;2022-09-16T15:04:30;14.40;99.90
8832;DHT22;4452;50.756;4.472;2022-09-16T15:07:06;15.00;99.90
8832;DHT22;4452;50.756;4.472;2022-09-16T15:12:29;14.70;99.90
8832;DHT22;4452;50.756;4.472;2022-09-16T15:14:56;15.20;99.90
8832;DHT22;4452;50.756;4.472;2022-09-16T15:17:24;16.40;99.90
8832;DHT22;4452;50.756;4.472;2022-09-16T15:19:56;17.10;99.90
8832;DHT22;4452;50.756;4.472;2022-09-16T15:22:23;17.70;99.90
8832;DHT22;4452;50.756;4.472;2022-09-16T15:24:53;18.10;99.90
8832;DHT22;4452;50.756;4.472;2022-09-16T15:27:28;17.50;99.90
8832;DHT22;4452;50.756;4.472;2022-09-16T15:29:58;17.80;99.90
8832;DHT22;4452;50.756;4.472;2022-09-16T15:32:26;18.10;99.90
8832;DHT22;4452;50.756;4.472;2022-09-16T15:37:44;15.40;99.90
8832;DHT22;4452;50.756;4.472;2022-09-16T15:40:21;15.00;99.90
8832;DHT22;4452;50.756;4.472;2022-09-16T15:43:25;14.90;99.90
8832;DHT22;4452;50.756;4.472;2022-09-16T15:46:03;15.30;99.90
8832;DHT22;4452;50.756;4.472;2022-09-16T15:48:36;15.80;99.90
8832;DHT22;4452;50.756;4.472;2022-09-16T15:51:31;16.20;99.90
8832;DHT22;4452;50.756;4.472;2022-09-16T15:54:13;16.30;99.90
8832;DHT22;4452;50.756;4.472;2022-09-16T15:56:55;15.90;99.90
8832;DHT22;4452;50.756;4.472;2022-09-16T15:59:28;16.60;99.90
8832;DHT22;4452;50.756;4.472;2022-09-16T16:01:58;16.80;99.90
8832;DHT22;4452;50.756;4.472;2022-09-16T16:04:29;15.00;99.90
8832;DHT22;4452;50.756;4.472;2022-09-16T16:07:00;14.10;99.90
8832;DHT22;4452;50.756;4.472;2022-09-16T16:12:06;14.80;99.90
8832;DHT22;4452;50.756;4.472;2022-09-16T16:14:33;15.30;99.90
8832;DHT22;4452;50.756;4.472;2022-09-16T16:17:11;15.60;99.90
8832;DHT22;4452;50.756;4.472;2022-09-16T16:19:42;16.00;99.90
8832;DHT22;4452;50.756;4.472;2022-09-16T16:22:08;14.90;99.90
8832;DHT22;4452;50.756;4.472;2022-09-16T16:24:34;14.60;99.90
8832;DHT22;4452;50.756;4.472;2022-09-16T16:27:00;14.90;99.90
8832;DHT22;4452;50.756;4.472;2022-09-16T16:29:26;15.40;99.90
8832;DHT22;4452;50.756;4.472;2022-09-16T16:32:13;14.90;99.90
8832;DHT22;4452;50.756;4.472;2022-09-16T16:34:45;13.90;99.90
8832;DHT22;4452;50.756;4.472;2022-09-16T16:37:13;14.00;99.90
8832;DHT22;4452;50.756;4.472;2022-09-16T16:39:39;14.00;99.90
8832;DHT22;4452;50.756;4.472;2022-09-16T16:42:05;14.00;99.90
8832;DHT22;4452;50.756;4.472;2022-09-16T16:44:31;13.70;99.90
8832;DHT22;4452;50.756;4.472;2022-09-16T16:46:57;13.40;99.90
8832;DHT22;4452;50.756;4.472;2022-09-16T16:49:23;13.30;99.90
8832;DHT22;4452;50.756;4.472;2022-09-16T16:51:53;13.20;99.90
8832;DHT22;4452;50.756;4.472;2022-09-16T16:54:25;13.00;99.90
8832;DHT22;4452;50.756;4.472;2022-09-16T16:56:51;12.80;99.90
8832;DHT22;4452;50.756;4.472;2022-09-16T16:59:17;12.60;99.90
8832;DHT22;4452;50.756;4.472;2022-09-16T17:01:44;12.30;99.90
8832;DHT22;4452;50.756;4.472;2022-09-16T17:04:10;12.20;99.90
8832;DHT22;4452;50.756;4.472;2022-09-16T17:06:37;11.90;99.90
8832;DHT22;4452;50.756;4.472;2022-09-16T17:09:07;11.80;99.90
8832;DHT22;4452;50.756;4.472;2022-09-16T17:11:33;11.50;99.90
8832;DHT22;4452;50.756;4.472;2022-09-16T17:14:02;11.30;99.90
8832;DHT22;4452;50.756;4.472;2022-09-16T17:16:29;11.20;99.90
8832;DHT22;4452;50.756;4.472;2022-09-16T17:18:57;11.00;99.90
8832;DHT22;4452;50.756;4.472;2022-09-16T17:21:28;11.00;99.90
8832;DHT22;4452;50.756;4.472;2022-09-16T17:23:55;11.00;99.90
8832;DHT22;4452;50.756;4.472;2022-09-16T17:26:21;10.90;99.90
8832;DHT22;4452;50.756;4.472;2022-09-16T17:28:50;10.90;99.90
8832;DHT22;4452;50.756;4.472;2022-09-16T17:31:30;11.00;99.90
8832;DHT22;4452;50.756;4.472;2022-09-16T17:33:59;10.90;99.90
8832;DHT22;4452;50.756;4.472;2022-09-16T17:36:28;10.90;99.90
8832;DHT22;4452;50.756;4.472;2022-09-16T17:38:59;10.80;99.90
8832;DHT22;4452;50.756;4.472;2022-09-16T17:41:25;10.90;99.90
8832;DHT22;4452;50.756;4.472;2022-09-16T17:43:55;10.80;99.90
8832;DHT22;4452;50.756;4.472;2022-09-16T17:46:21;10.80;99.90
8832;DHT22;4452;50.756;4.472;2022-09-16T17:48:49;10.80;99.90
8832;DHT22;4452;50.756;4.472;2022-09-16T17:51:16;10.80;99.90
8832;DHT22;4452;50.756;4.472;2022-09-16T17:53:42;10.80;99.90
8832;DHT22;4452;50.756;4.472;2022-09-16T17:56:13;10.80;99.90
8832;DHT22;4452;50.756;4.472;2022-09-16T17:58:40;10.80;99.90
8832;DHT22;4452;50.756;4.472;2022-09-16T18:01:09;10.80;99.90
8832;DHT22;4452;50.756;4.472;2022-09-16T18:03:35;10.80;99.90
8832;DHT22;4452;50.756;4.472;2022-09-16T18:06:16;10.80;99.90
8832;DHT22;4452;50.756;4.472;2022-09-16T18:08:43;10.90;99.90
8832;DHT22;4452;50.756;4.472;2022-09-16T18:11:10;10.80;99.90
8832;DHT22;4452;50.756;4.472;2022-09-16T18:13:37;10.80;99.90
8832;DHT22;4452;50.756;4.472;2022-09-16T18:16:12;10.70;99.90
8832;DHT22;4452;50.756;4.472;2022-09-16T18:18:39;10.60;99.90
8832;DHT22;4452;50.756;4.472;2022-09-16T18:21:08;10.60;99.90
8832;DHT22;4452;50.756;4.472;2022-09-16T18:23:33;10.60;99.90
8832;DHT22;4452;50.756;4.472;2022-09-16T18:26:07;10.60;99.90
8832;DHT22;4452;50.756;4.472;2022-09-16T18:28:37;10.70;99.90
8832;DHT22;4452;50.756;4.472;2022-09-16T18:31:05;10.60;99.90
8832;DHT22;4452;50.756;4.472;2022-09-16T18:33:32;10.60;99.90
8832;DHT22;4452;50.756;4.472;2022-09-16T18:35:59;10.70;99.90
8832;DHT22;4452;50.756;4.472;2022-09-16T18:38:26;10.70;99.90
8832;DHT22;4452;50.756;4.472;2022-09-16T18:41:22;10.60;99.90
8832;DHT22;4452;50.756;4.472;2022-09-16T18:43:51;10.60;99.90
8832;DHT22;4452;50.756;4.472;2022-09-16T18:46:23;10.70;99.90
8832;DHT22;4452;50.756;4.472;2022-09-16T18:48:49;10.70;99.90
8832;DHT22;4452;50.756;4.472;2022-09-16T18:53:49;10.50;99.90
8832;DHT22;4452;50.756;4.472;2022-09-16T18:56:19;10.50;99.90
8832;DHT22;4452;50.756;4.472;2022-09-16T18:58:46;10.40;99.90
8832;DHT22;4452;50.756;4.472;2022-09-16T19:01:28;10.30;99.90
8832;DHT22;4452;50.756;4.472;2022-09-16T19:03:56;10.20;99.90
8832;DHT22;4452;50.756;4.472;2022-09-16T19:06:25;10.20;99.90
8832;DHT22;4452;50.756;4.472;2022-09-16T19:08:51;10.20;99.90
8832;DHT22;4452;50.756;4.472;2022-09-16T19:11:17;10.20;99.90
8832;DHT22;4452;50.756;4.472;2022-09-16T19:13:43;10.20;99.90
8832;DHT22;4452;50.756;4.472;2022-09-16T19:16:10;10.30;99.90
8832;DHT22;4452;50.756;4.472;2022-09-16T19:18:37;10.20;99.90
8832;DHT22;4452;50.756;4.472;2022-09-16T19:21:03;10.10;99.90
8832;DHT22;4452;50.756;4.472;2022-09-16T19:23:29;10.00;99.90
8832;DHT22;4452;50.756;4.472;2022-09-16T19:26:04;10.00;99.90
8832;DHT22;4452;50.756;4.472;2022-09-16T19:28:31;10.00;99.90
8832;DHT22;4452;50.756;4.472;2022-09-16T19:31:09;10.00;99.90
8832;DHT22;4452;50.756;4.472;2022-09-16T19:33:39;10.10;99.90
8832;DHT22;4452;50.756;4.472;2022-09-16T19:36:18;10.00;99.90
8832;DHT22;4452;50.756;4.472;2022-09-16T19:38:47;10.00;99.90